アンタナナリボ の空港の天気 - METARとTAF

イヴァト空港(アンタナナリボ) ( FMMI / TNR ) - マダガスカル アンタナナリボ
飛行場実況気象(Metar)
観測時間02/18 02:00 EAT (02/17 23:00 UTC)
風向・風速南東 2m/s
視程10km以上
天気現象
少しの雲 雲底高度 520m
全天の8割程度の雲 雲底高度 610m
気温19℃
湿度88%
気圧1018hPa
METARFMMI 172300Z 14004KT 110V180 9999 FEW017 BKN020 19/17 Q1018 NOSIG
過去の天気等 Google飛行場航空写真 Wunderground天気予報

過去48時間のMETAR

飛行場予報(TAF)
発表時間: -
18日11時 EAT ~ 18日13時 EAT に徐々に
少しの積乱雲 雲底高度 520m
全天の4割程度の雲 雲底高度 610m
18日17時 EAT ~ 18日21時 EAT に 確率 30% で一時的に
視程4500m
天気現象弱い雷雨
18日21時 EAT ~ 18日24時 EAT に徐々に
少しの雲 雲底高度 520m
全天の8割程度の雲 雲底高度 610m
TAF
FMMI 171700Z 1718/1824 VRB05KT 9999 FEW020
BECMG 1808/1810 FEW017CB SCT020
PROB30 TEMPO 1814/1818 4500 -TSRA
BECMG 1818/1821 FEW017 BKN020